AirNav   Pilot Hours Calculator
 
 992 users online  

KVLL Oakland/Troy Airport
Troy, Michigan, USA

GOING TO TROY?


FAA INFORMATION EFFECTIVE 05 NOVEMBER 2020

Location

FAA Identifier: VLL
Lat/Long: 42-32-34.6000N 083-10-40.4000W
42-32.576667N 083-10.673333W
42.5429444,-83.1778889
(estimated)
Elevation: 727.2 ft. / 221.7 m (surveyed)
Variation: 06W (1995)
From city: 2 miles E of TROY, MI
Time zone: UTC -5 (UTC -4 during Daylight Saving Time)
Zip code: 48084

Airport Operations

Airport use: Open to the public
Control tower: no
ARTCC: CLEVELAND CENTER
FSS: LANSING FLIGHT SERVICE STATION
NOTAMs facility: VLL (NOTAM-D service available)
Attendance: 0800-1800
Pattern altitude: 1727.2 ft. MSL
Wind indicator: lighted
Segmented circle: no
Lights: ACTVT MIRL RY 09/27 & PAPI RYS 09 & 27 - CTAF.
Beacon: white-green (lighted land airport)
Operates sunset to sunrise.
Landing fee: yes

Airport Communications

CTAF/UNICOM: 123.05
WX AWOS-3: 119.475 (248-288-4649)
DETROIT APPROACH: 134.3
DETROIT DEPARTURE: 134.3
WX ASOS at DET (11 nm SE): PHONE 313-371-9696
WX ASOS at PTK (13 nm NW): 125.025 (248-886-8551)

Nearby radio navigation aids

VOR radial/distance  VOR name  Freq  Var
SVMr069/20.1SALEM VORTAC114.3003W
DXOr029/21.5DETROIT VOR/DME113.4006W
CRLr026/32.2CARLETON VOR/DME115.7003W
FNTr141/35.7FLINT VORTAC116.9006W

 
NDB name  Hdg/Dist  Freq  Var  ID
GROSSE ILE005/26.541907WRYS .-. -.-- ...

Airport Services

Fuel available: 100LL JET-A
Parking: tiedowns
Airframe service: NONE
Powerplant service: NONE

Runway Information

Runway 9/27

Dimensions: 3549 x 60 ft. / 1082 x 18 m
Surface: asphalt, in fair condition
Runway edge lights: medium intensity
RUNWAY 9  RUNWAY 27
Latitude: 42-32.575973N42-32.578848N
Longitude: 083-11.068925W083-10.278788W
Elevation: 727.0 ft.701.0 ft.
Traffic pattern: leftleft
Runway heading: 096 magnetic, 090 true276 magnetic, 270 true
Markings: nonprecision, in good conditionnonprecision, in good condition
Visual slope indicator: 2-light PAPI on right (3.75 degrees glide path)2-light PAPI on left (3.75 degrees glide path)
Runway end identifier lights: nono
Touchdown point: yes, no lightsyes, no lights
Obstructions: 19 ft. tree, 207 ft. from runway, 137 ft. right of centerline30 ft. tree, 200 ft. from runway, 125 ft. left of centerline

Airport Ownership and Management from official FAA records

Ownership: Publicly-owned
Owner: OAKLAND COUNTY
6500 HIGHLAND ROAD
WATERFORD, MI 48327
Phone (248) 288-6100
ARPT PHONE 248-666-3900
Manager: CHERYL BUSH
6500 HIGHLAND RD
WATERFORD, MI 48327
Phone 248-666-3900

Airport Operational Statistics

Aircraft based on the field: 113
Single engine airplanes: 102
Multi engine airplanes: 5
Helicopters: 5
Ultralights: 1
    
Aircraft operations: avg 82/day *
50% transient general aviation
50% local general aviation
* for 12-month period ending 31 December 2019

Additional Remarks

DEER AND BIRDS ON & INVOF ARPT.
RY 09 +3 FT BERM 316 FT FM THLD.
NO TGL OR PRACTICE TFC PATTERNS.
FOR CD CTC DETROIT APCH AT 800-499-8181.

Instrument Procedures

NOTE: All procedures below are presented as PDF files. If you need a reader for these files, you should download the free Adobe Reader.

NOT FOR NAVIGATION. Please procure official charts for flight.
FAA instrument procedures published for use from 05 November 2020 at 0901Z to 03 December 2020 at 0900z.

 
STARs - Standard Terminal Arrivals
FOREY TWO (RNAV)   download (168KB)
OKLND ONE (RNAV)   download (149KB)
PETTE TWO (RNAV)   download (211KB)
RRALF THREE (RNAV)   download (169KB)
 
IAPs - Instrument Approach Procedures
RNAV (GPS) RWY 09   download (185KB)
 
Departure Procedures
BARII TWO (RNAV)   download (162KB)
CCOBB TWO (RNAV)   download (206KB)
CLVIN TWO (RNAV)   download (176KB)
HHOWE THREE (RNAV)   download (194KB)
KAYLN TWO (RNAV)   download (170KB)
LIDDS TWO (RNAV)   download (185KB)
MIGGY TWO (RNAV)   download (204KB)
PAVYL TWO (RNAV)   download (181KB)
SNDRS TWO (RNAV)   download (218KB)
TRMML THREE (RNAV)   download (167KB)
ZETTR THREE (RNAV)   download (208KB)
NOTE: Special Take-Off Minimums/Departure Procedures apply   download (125KB)

Other nearby airports with instrument procedures:

KDET - Coleman A Young Municipal Airport (11 nm SE)
KPTK - Oakland County International Airport (13 nm NW)
KMTC - Selfridge Air National Guard Base (16 nm E)
1D2 - Canton-Plymouth-Mettetal Airport (17 nm SW)
57D - Ray Community Airport (17 nm NE)
D98 - Romeo State Airport (18 nm NE)
Y47 - Oakland Southwest Airport (20 nm W)
 
Loc | Ops | Rwys | IFR | FBO | Links
Com | Nav | Svcs | Stats | Notes
Area around KVLL (Oakland/Troy Airport)
 
Road maps at: MapQuest Bing Google
 
Aerial photo
WARNING: Photo may not be current or correct
Aerial photo of KVLL (Oakland/Troy Airport)
Photo by Jeff Schuster
Photo taken 29-Jun-2014
looking west.

Do you have a better or more recent aerial photo of Oakland/Troy Airport that you would like to share? If so, please send us your photo.

 
Sectional chart

 
Airport distance calculator
Flying to Oakland/Troy Airport? Find the distance to fly.

From to KVLL

Sunrise and sunset
Times for 29-Nov-2020
 Local
(UTC-5)
 Zulu
(UTC)
Morning civil twilight07:1112:11
Sunrise07:4312:43
Sunset17:0022:00
Evening civil twilight17:3122:31

Current date and time
Zulu (UTC)  30-Nov-2020 02:36:03
Local (UTC-5)  29-Nov-2020 21:36:03
 
METAR
KVLL 300215Z AUTO 22004KT 10SM SCT120 07/00 A2988 RMK AO2 T00670001
KDET 
11nm SE 
300153Z 21006KT 10SM CLR 07/01 A2987 RMK AO2 SLP118 T00720011
KPTK 
13nm NW 
300153Z 21004KT 10SM OVC140 06/00 A2984 RMK AO2 SLP112 T00610000
KMTC 
17nm E 
300156Z 19004KT 10SM BKN150 OVC200 06/03 A2985 RMK AO2A SLP117 T00590031 $
CYQG 
19nm SE 
300200Z AUTO 17005KT 9SM OVC170 05/02 A2986 RMK SLP122
KDTW 
20nm S 
300153Z 20004KT 10SM FEW130 OVC170 06/00 A2988 RMK AO2 SLP122 T00610000 $
TAF
KDET 
11nm SE 
291729Z 2918/3018 22008KT P6SM BKN200 FM300500 31007KT P6SM SCT015 OVC120 FM301000 35010KT 5SM -RA OVC030 FM301500 35012G20KT 2SM -RASN OVC009
KPTK 
13nm NW 
291729Z 2918/3018 22008KT P6SM BKN200 FM300400 31007KT P6SM SCT015 OVC120 FM301000 35010KT 3SM -RASN OVC020 FM301200 35012KT 1SM -SN OVC012 FM301400 34012G20KT 3/4SM -SN OVC008
KMTC 
17nm E 
291700Z 2917/3023 20009KT 9999 BKN250 QNH2985INS BECMG 3005/3006 31009KT 9999 SCT010 BKN020 QNH2980INS BECMG 3008/3009 35009KT 9000 -RA OVC010 620307 QNH2977INS BECMG 3011/3012 35012G18KT 6000 -RA OVC009 620307 QNH2961INS BECMG 3016/3017 35015G25KT 4800 -RASN OVC009 620109 QNH2961INS BECMG 3020/3021 35015G25KT 3200 -SN OVC009 620109 QNH2962INS TX10/2918Z TN02/3014Z
CYQG 
19nm SE 
291738Z 2918/3018 21012G22KT P6SM BKN240 BECMG 2921/2923 21010KT FM300500 31006KT P6SM BKN160 OVC200 FM300800 35010KT P6SM OVC080 TEMPO 3009/3011 P6SM -RA BKN008 OVC030 FM301100 35012KT P6SM -RA OVC007 FM301400 35015G25KT 4SM -RASN OVC007 RMK FCST BASED ON AUTO OBS. NXT FCST BY 300000Z
KDTW 
20nm S 
292138Z 2922/3024 22010KT P6SM BKN200 FM300500 31007KT P6SM SCT030 OVC120 FM301000 35010KT 5SM -RA SCT015 OVC030 FM301500 35012G20KT 2SM -RASN OVC009 FM301900 33016G25KT 3/4SM -SN OVC008
NOTAMs
Click for the latest NOTAMs
NOTAMs are issued by the DoD/FAA and will open in a separate window not controlled by AirNav.

 

 
 

FBO, Fuel Providers, and Aircraft Ground Support

  
 Business Name 
 
 Contact 
 
 Services / Description 
 
Fuel Prices
 
Comments
  
JDS Pump-N-Go 248-288-6100
[email]
Aviation fuel, Aircraft parking (ramp or tiedown), Hangar leasing / sales

More info about JDS Pump-N-Go
Avfuel
100LL Jet A
SS $5.02 $3.68 
 Updated 18-Nov-2020
 
   write
SS=Self service
Update Fuel Prices
 

Would you like to see your business listed on this page?

 If your business provides an interesting product or service to pilots, flight crews, aircraft, or users of the Oakland/Troy Airport, you should consider listing it here.  To start the listing process, click on the button below
 
Add a business
 

Other Pages about Oakland/Troy Airport

Oakland/Troy Airport Website
Page from the Michigan Airport Directory (PDF)
 
Update a link
 
Copyright © AirNav, LLC. All rights reserved. Privacy Policy  Contact